Terminal Aerodrome Forecast
Issued by NWS Wichita, KS

Home | Current Version | Previous Version | Text Only | Print | Product List | Glossary On
Versions: 1 2 3 4 5 6 7 8 9 10 11 12 13 14 15 16 17 18
000
FTUS43 KICT 131600 AAA
TAFICT
TAF AMD
KICT 131602Z 1316/1412 20023G32KT P6SM VCSH SCT030 BKN100
      TEMPO 1316/1320 BKN030
     FM132000 34025G33KT P6SM SCT015 OVC025
     FM140900 34020G30KT 5SM -RASN BR OVC020=

USA.gov is the U.S. government's official web portal to all federal, state and local government web resources and services.